createdAt,value
2019-05-19T00:04:44.620Z,15.20
2019-05-19T00:09:49.246Z,15.20
2019-05-19T00:20:07.147Z,15.20
2019-05-19T00:25:08.672Z,15.10
2019-05-19T00:30:10.293Z,15.00
2019-05-19T00:35:13.946Z,15.00
2019-05-19T00:40:17.519Z,15.00
2019-05-19T00:45:24.332Z,14.90
2019-05-19T00:50:25.805Z,14.90
2019-05-19T00:55:29.031Z,14.80
2019-05-19T01:00:32.513Z,14.80
2019-05-19T01:05:39.460Z,14.80
2019-05-19T01:10:40.709Z,14.80
2019-05-19T01:15:43.542Z,14.70
2019-05-19T01:20:46.469Z,14.70
2019-05-19T01:25:49.649Z,14.60
2019-05-19T01:30:50.954Z,14.60
2019-05-19T01:35:54.862Z,14.50
2019-05-19T01:40:56.185Z,14.50
2019-05-19T01:46:02.866Z,14.40
2019-05-19T01:51:04.510Z,14.40
2019-05-19T01:56:05.918Z,14.30
2019-05-19T02:01:07.704Z,14.30
2019-05-19T02:06:10.541Z,14.30
2019-05-19T02:11:12.311Z,14.30
2019-05-19T02:16:13.732Z,14.30
2019-05-19T02:21:17.397Z,14.20
2019-05-19T02:26:20.253Z,14.20
2019-05-19T02:31:25.551Z,14.20
2019-05-19T02:36:33.721Z,14.10
2019-05-19T02:41:41.977Z,14.10
2019-05-19T02:46:47.786Z,14.00
2019-05-19T02:51:55.344Z,14.00
2019-05-19T02:57:01.724Z,14.00
2019-05-19T03:02:15.356Z,14.00
2019-05-19T03:07:20.389Z,13.90
2019-05-19T03:12:23.185Z,13.90
2019-05-19T03:17:27.083Z,13.80
2019-05-19T03:22:30.404Z,13.80
2019-05-19T03:27:35.289Z,13.80
2019-05-19T03:32:42.144Z,13.80
2019-05-19T03:37:45.348Z,13.70
2019-05-19T03:42:53.123Z,13.70
2019-05-19T03:47:59.148Z,13.70
2019-05-19T03:53:00.458Z,13.70
2019-05-19T03:58:01.757Z,13.70
2019-05-19T04:03:04.389Z,13.70
2019-05-19T04:08:06.257Z,13.70
2019-05-19T04:13:08.174Z,13.70
2019-05-19T04:18:09.522Z,13.60
2019-05-19T04:23:14.714Z,13.70
2019-05-19T04:28:17.699Z,13.60
2019-05-19T04:33:21.119Z,13.60
2019-05-19T04:38:24.341Z,13.60
2019-05-19T04:43:27.258Z,13.60
2019-05-19T04:48:28.568Z,13.70
2019-05-19T04:53:30.220Z,13.70
2019-05-19T04:58:31.505Z,13.80
2019-05-19T05:03:38.204Z,13.80
2019-05-19T05:08:41.563Z,13.80
2019-05-19T05:13:44.787Z,13.90
2019-05-19T05:18:48.056Z,13.90
2019-05-19T05:23:49.539Z,13.90
2019-05-19T05:28:53.497Z,14.00
2019-05-19T05:33:54.831Z,14.00
2019-05-19T05:39:00.303Z,14.00
2019-05-19T05:44:03.923Z,14.10
2019-05-19T05:49:05.590Z,14.00
2019-05-19T05:54:10.308Z,14.10
2019-05-19T05:59:13.210Z,14.10
2019-05-19T06:04:20.547Z,14.00
2019-05-19T06:09:21.951Z,13.90
2019-05-19T06:14:23.250Z,13.90
2019-05-19T06:19:24.677Z,13.80
2019-05-19T06:24:26.705Z,13.70
2019-05-19T06:29:33.911Z,13.60
2019-05-19T06:34:35.258Z,13.50
2019-05-19T06:39:37.552Z,13.50
2019-05-19T06:44:38.839Z,13.50
2019-05-19T06:49:43.493Z,13.50
2019-05-19T06:54:46.688Z,13.60
2019-05-19T06:59:48.918Z,13.50
2019-05-19T07:05:10.650Z,13.60
2019-05-19T07:10:13.883Z,13.60
2019-05-19T07:15:15.817Z,13.60
2019-05-19T07:20:17.135Z,13.60
2019-05-19T07:25:18.722Z,13.60
2019-05-19T07:30:24.487Z,13.70
2019-05-19T07:35:26.894Z,13.80
2019-05-19T07:40:28.184Z,14.00
2019-05-19T07:45:31.877Z,14.10
2019-05-19T07:50:33.159Z,14.40
2019-05-19T07:55:34.472Z,14.50
2019-05-19T08:00:35.735Z,14.60
2019-05-19T08:05:38.550Z,14.70
2019-05-19T08:10:42.790Z,14.80
2019-05-19T08:15:44.837Z,15.00
2019-05-19T08:20:46.159Z,15.20
2019-05-19T08:25:47.446Z,15.60
2019-05-19T08:30:48.847Z,15.90
2019-05-19T08:35:50.475Z,16.00
2019-05-19T08:40:51.983Z,16.10
2019-05-19T08:45:54.913Z,16.20
2019-05-19T08:50:56.180Z,16.30
2019-05-19T08:55:57.445Z,16.40
2019-05-19T09:00:58.706Z,16.50
2019-05-19T09:05:59.991Z,16.70
2019-05-19T09:11:01.276Z,16.80
2019-05-19T09:16:03.357Z,16.90
2019-05-19T09:21:04.807Z,17.20
2019-05-19T09:26:09.094Z,17.40
2019-05-19T09:31:10.447Z,17.60
2019-05-19T09:36:12.008Z,17.90
2019-05-19T09:41:13.306Z,18.00
2019-05-19T09:46:14.653Z,18.10
2019-05-19T09:51:16.165Z,18.10
2019-05-19T09:56:17.452Z,18.20
2019-05-19T10:01:18.706Z,18.30
2019-05-19T10:06:19.985Z,18.40
2019-05-19T10:11:51.375Z,18.40
2019-05-19T10:16:52.819Z,18.60
2019-05-19T10:21:54.096Z,18.90
2019-05-19T10:26:57.047Z,19.10
2019-05-19T10:31:58.303Z,19.20
2019-05-19T10:36:59.730Z,19.30
2019-05-19T10:42:01.969Z,19.30
2019-05-19T10:47:04.657Z,19.40
2019-05-19T10:52:06.101Z,19.50
2019-05-19T10:57:07.541Z,19.50
2019-05-19T11:02:09.043Z,19.50
2019-05-19T11:07:10.333Z,19.50
2019-05-19T11:12:11.739Z,19.60
2019-05-19T11:17:14.440Z,19.70
2019-05-19T11:22:17.639Z,19.80
2019-05-19T11:27:18.962Z,19.90
2019-05-19T11:32:20.580Z,20.00
2019-05-19T11:37:22.286Z,20.20
2019-05-19T11:42:23.704Z,20.30
2019-05-19T11:47:45.971Z,20.30
2019-05-19T11:52:47.577Z,20.30
2019-05-19T11:57:49.247Z,20.40
2019-05-19T12:02:50.751Z,20.30
2019-05-19T12:07:52.100Z,20.30
2019-05-19T12:12:55.436Z,20.40
2019-05-19T12:17:56.743Z,20.40
2019-05-19T12:22:58.070Z,20.60
2019-05-19T12:27:59.388Z,20.70
2019-05-19T12:33:00.776Z,20.90
2019-05-19T12:38:02.177Z,21.30
2019-05-19T12:43:03.579Z,21.40
2019-05-19T12:48:05.217Z,21.60
2019-05-19T12:53:06.497Z,21.70
2019-05-19T12:58:09.721Z,21.60
2019-05-19T13:03:11.010Z,21.50
2019-05-19T13:08:12.381Z,21.50
2019-05-19T13:13:15.473Z,21.60
2019-05-19T13:18:16.772Z,21.70
2019-05-19T13:23:18.549Z,21.80
2019-05-19T13:28:20.102Z,21.80
2019-05-19T13:33:21.963Z,21.80
2019-05-19T13:38:23.286Z,21.70
2019-05-19T13:43:26.003Z,21.70
2019-05-19T13:48:28.218Z,21.80
2019-05-19T13:53:29.547Z,21.90
2019-05-19T13:58:30.893Z,22.00
2019-05-19T14:03:32.233Z,22.00
2019-05-19T14:08:36.408Z,22.00
2019-05-19T14:13:37.940Z,21.90
2019-05-19T14:18:39.309Z,21.80
2019-05-19T14:23:40.986Z,21.70
2019-05-19T14:28:42.470Z,21.70
2019-05-19T14:33:45.675Z,21.70
2019-05-19T14:39:05.056Z,21.70
2019-05-19T14:44:05.334Z,21.70
2019-05-19T14:49:07.083Z,21.80
2019-05-19T14:54:08.471Z,21.80
2019-05-19T14:59:10.113Z,21.90
2019-05-19T15:04:13.299Z,21.90
2019-05-19T15:09:14.557Z,21.90
2019-05-19T15:14:15.946Z,21.80
2019-05-19T15:19:17.221Z,21.70
2019-05-19T15:24:18.610Z,21.50
2019-05-19T15:29:21.184Z,21.30
2019-05-19T15:34:22.494Z,21.20
2019-05-19T15:39:24.141Z,21.00
2019-05-19T15:44:25.712Z,20.80
2019-05-19T15:49:27.123Z,20.70
2019-05-19T15:54:28.432Z,20.60
2019-05-19T15:59:31.404Z,20.40
2019-05-19T16:04:32.680Z,20.30
2019-05-19T16:09:33.968Z,20.10
2019-05-19T16:14:35.910Z,19.90
2019-05-19T16:19:37.270Z,19.80
2019-05-19T16:24:39.028Z,19.60
2019-05-19T16:29:41.392Z,19.40
2019-05-19T16:34:42.696Z,19.20
2019-05-19T16:39:44.047Z,19.00
2019-05-19T16:44:45.985Z,18.70
2019-05-19T16:49:47.850Z,18.50
2019-05-19T16:55:10.147Z,18.40
2019-05-19T17:00:14.763Z,18.20
2019-05-19T17:05:16.930Z,18.10
2019-05-19T17:10:20.816Z,17.90
2019-05-19T17:15:22.689Z,17.80
2019-05-19T17:20:26.151Z,17.60
2019-05-19T17:25:31.416Z,17.50
2019-05-19T17:30:35.146Z,17.40
2019-05-19T17:35:36.546Z,17.30
2019-05-19T17:40:38.200Z,17.20
2019-05-19T17:45:39.613Z,17.10
2019-05-19T17:50:40.894Z,17.00
2019-05-19T17:55:54.004Z,16.90
2019-05-19T18:00:57.236Z,16.90
2019-05-19T18:06:00.765Z,16.80
2019-05-19T18:11:03.311Z,16.70
2019-05-19T18:16:07.436Z,16.60
2019-05-19T18:21:10.214Z,16.60
2019-05-19T18:26:13.330Z,16.50
2019-05-19T18:31:18.397Z,16.40
2019-05-19T18:36:24.023Z,16.30
2019-05-19T18:41:27.658Z,16.10
2019-05-19T18:46:28.971Z,16.00
2019-05-19T18:51:31.833Z,15.80
2019-05-19T18:56:33.558Z,15.60
2019-05-19T19:01:35.105Z,15.40
2019-05-19T19:06:37.685Z,15.20
2019-05-19T19:11:38.962Z,14.90
2019-05-19T19:16:40.385Z,14.80
2019-05-19T19:21:42.876Z,14.80
2019-05-19T19:26:44.244Z,14.70
2019-05-19T19:31:48.480Z,14.60
2019-05-19T19:36:50.012Z,14.60
2019-05-19T19:41:51.298Z,14.50
2019-05-19T19:46:53.740Z,14.40
2019-05-19T19:51:56.064Z,14.30
2019-05-19T19:57:01.321Z,14.40
2019-05-19T20:02:02.729Z,14.30
2019-05-19T20:07:06.324Z,14.40
2019-05-19T20:12:09.909Z,14.40
2019-05-19T20:17:13.266Z,14.40
2019-05-19T20:22:16.569Z,14.40
2019-05-19T20:27:17.887Z,14.40
2019-05-19T20:32:19.178Z,14.40
2019-05-19T20:37:22.818Z,14.40
2019-05-19T20:42:24.221Z,14.40
2019-05-19T20:47:25.522Z,14.40
2019-05-19T20:52:28.928Z,14.40
2019-05-19T20:57:30.209Z,14.30
2019-05-19T21:02:31.844Z,14.30
2019-05-19T21:07:36.786Z,14.40
2019-05-19T21:12:39.993Z,14.30
2019-05-19T21:17:42.719Z,14.30
2019-05-19T21:22:44.139Z,14.30
2019-05-19T21:27:47.420Z,14.30
2019-05-19T21:32:49.603Z,14.30
2019-05-19T21:37:56.503Z,14.30
2019-05-19T21:43:01.184Z,14.30
2019-05-19T21:48:04.577Z,14.30
2019-05-19T21:53:08.127Z,14.30
2019-05-19T21:58:09.451Z,14.30
2019-05-19T22:03:11.575Z,14.20
2019-05-19T22:08:15.129Z,14.20
2019-05-19T22:13:16.562Z,14.10
2019-05-19T22:18:19.481Z,14.10
2019-05-19T22:23:20.867Z,14.10
2019-05-19T22:28:22.659Z,14.10
2019-05-19T22:33:24.171Z,14.00
2019-05-19T22:38:25.764Z,13.90
2019-05-19T22:43:27.251Z,13.90
2019-05-19T22:48:30.521Z,13.80
2019-05-19T22:53:32.972Z,13.80
2019-05-19T22:58:35.696Z,13.80
2019-05-19T23:03:41.462Z,13.70
2019-05-19T23:08:47.609Z,13.80
2019-05-19T23:13:48.970Z,13.70
2019-05-19T23:18:52.902Z,13.70
2019-05-19T23:23:55.116Z,13.70
2019-05-19T23:28:56.998Z,13.60
2019-05-19T23:33:59.153Z,13.70
2019-05-19T23:39:22.547Z,13.60
2019-05-19T23:44:24.311Z,13.60
2019-05-19T23:49:25.906Z,13.60
2019-05-19T23:54:31.429Z,13.50
2019-05-19T23:59:36.797Z,13.50
